sensor_id;sensor_type;location;lat;lon;timestamp;P1;durP1;ratioP1;P2;durP2;ratioP2
8421;SDS011;4248;48.196;10.924;2023-04-03T00:02:08;13.03;;;6.00;;
8421;SDS011;4248;48.196;10.924;2023-04-03T00:04:34;10.53;;;5.80;;
8421;SDS011;4248;48.196;10.924;2023-04-03T00:07:00;6.70;;;4.63;;
8421;SDS011;4248;48.196;10.924;2023-04-03T00:09:25;7.60;;;5.53;;
8421;SDS011;4248;48.196;10.924;2023-04-03T00:11:51;8.20;;;6.00;;
8421;SDS011;4248;48.196;10.924;2023-04-03T00:14:17;9.80;;;6.27;;
8421;SDS011;4248;48.196;10.924;2023-04-03T00:16:42;8.87;;;5.93;;
8421;SDS011;4248;48.196;10.924;2023-04-03T00:19:08;8.03;;;6.10;;
8421;SDS011;4248;48.196;10.924;2023-04-03T00:21:36;10.90;;;6.47;;
8421;SDS011;4248;48.196;10.924;2023-04-03T00:24:02;9.07;;;6.00;;
8421;SDS011;4248;48.196;10.924;2023-04-03T00:26:28;13.13;;;7.00;;
8421;SDS011;4248;48.196;10.924;2023-04-03T00:28:53;7.73;;;5.90;;
8421;SDS011;4248;48.196;10.924;2023-04-03T00:31:19;6.80;;;5.27;;
8421;SDS011;4248;48.196;10.924;2023-04-03T00:33:45;8.30;;;6.13;;
8421;SDS011;4248;48.196;10.924;2023-04-03T00:36:11;14.73;;;5.73;;
8421;SDS011;4248;48.196;10.924;2023-04-03T00:38:37;8.83;;;5.47;;
8421;SDS011;4248;48.196;10.924;2023-04-03T00:41:03;9.73;;;4.87;;
8421;SDS011;4248;48.196;10.924;2023-04-03T00:43:29;12.10;;;5.53;;
8421;SDS011;4248;48.196;10.924;2023-04-03T00:45:56;8.03;;;5.47;;
8421;SDS011;4248;48.196;10.924;2023-04-03T00:48:26;7.88;;;5.30;;
8421;SDS011;4248;48.196;10.924;2023-04-03T00:51:07;8.13;;;4.43;;
8421;SDS011;4248;48.196;10.924;2023-04-03T00:53:37;7.80;;;4.60;;
8421;SDS011;4248;48.196;10.924;2023-04-03T00:56:07;7.80;;;4.70;;
8421;SDS011;4248;48.196;10.924;2023-04-03T00:58:44;6.80;;;4.15;;
8421;SDS011;4248;48.196;10.924;2023-04-03T01:01:22;9.20;;;4.97;;
8421;SDS011;4248;48.196;10.924;2023-04-03T01:03:50;7.47;;;4.23;;
8421;SDS011;4248;48.196;10.924;2023-04-03T01:06:16;9.37;;;5.03;;
8421;SDS011;4248;48.196;10.924;2023-04-03T01:08:44;5.65;;;3.97;;
8421;SDS011;4248;48.196;10.924;2023-04-03T01:11:12;8.57;;;4.33;;
8421;SDS011;4248;48.196;10.924;2023-04-03T01:13:38;4.97;;;4.30;;
8421;SDS011;4248;48.196;10.924;2023-04-03T01:16:05;9.80;;;3.93;;
8421;SDS011;4248;48.196;10.924;2023-04-03T01:18:32;5.60;;;3.95;;
8421;SDS011;4248;48.196;10.924;2023-04-03T01:26:33;5.13;;;3.83;;
8421;SDS011;4248;48.196;10.924;2023-04-03T01:29:03;5.43;;;3.60;;
8421;SDS011;4248;48.196;10.924;2023-04-03T01:34:01;4.57;;;3.10;;
8421;SDS011;4248;48.196;10.924;2023-04-03T01:36:28;5.63;;;3.30;;
8421;SDS011;4248;48.196;10.924;2023-04-03T01:38:56;4.17;;;2.80;;
8421;SDS011;4248;48.196;10.924;2023-04-03T01:41:24;6.55;;;3.35;;
8421;SDS011;4248;48.196;10.924;2023-04-03T01:43:50;5.77;;;3.70;;
8421;SDS011;4248;48.196;10.924;2023-04-03T01:46:16;3.97;;;2.83;;
8421;SDS011;4248;48.196;10.924;2023-04-03T01:48:43;5.55;;;3.40;;
8421;SDS011;4248;48.196;10.924;2023-04-03T01:51:09;5.60;;;3.20;;
8421;SDS011;4248;48.196;10.924;2023-04-03T01:53:35;3.90;;;3.00;;
8421;SDS011;4248;48.196;10.924;2023-04-03T01:56:00;5.13;;;3.20;;
8421;SDS011;4248;48.196;10.924;2023-04-03T01:58:26;4.88;;;3.72;;
8421;SDS011;4248;48.196;10.924;2023-04-03T02:00:52;4.27;;;2.97;;
8421;SDS011;4248;48.196;10.924;2023-04-03T02:03:18;4.83;;;3.07;;
8421;SDS011;4248;48.196;10.924;2023-04-03T02:05:43;8.10;;;3.33;;
8421;SDS011;4248;48.196;10.924;2023-04-03T02:08:09;9.00;;;3.83;;
8421;SDS011;4248;48.196;10.924;2023-04-03T02:10:35;4.00;;;3.10;;
8421;SDS011;4248;48.196;10.924;2023-04-03T02:13:01;4.90;;;3.40;;
8421;SDS011;4248;48.196;10.924;2023-04-03T02:15:27;6.60;;;3.20;;
8421;SDS011;4248;48.196;10.924;2023-04-03T02:17:53;4.70;;;2.90;;
8421;SDS011;4248;48.196;10.924;2023-04-03T02:20:18;6.10;;;3.13;;
8421;SDS011;4248;48.196;10.924;2023-04-03T02:22:44;4.50;;;3.20;;
8421;SDS011;4248;48.196;10.924;2023-04-03T02:25:10;4.43;;;3.07;;
8421;SDS011;4248;48.196;10.924;2023-04-03T02:27:36;4.43;;;3.20;;
8421;SDS011;4248;48.196;10.924;2023-04-03T02:30:02;5.47;;;3.00;;
8421;SDS011;4248;48.196;10.924;2023-04-03T02:32:29;6.67;;;3.40;;
8421;SDS011;4248;48.196;10.924;2023-04-03T02:34:54;2.83;;;2.37;;
8421;SDS011;4248;48.196;10.924;2023-04-03T02:37:21;7.45;;;3.25;;
8421;SDS011;4248;48.196;10.924;2023-04-03T02:39:46;9.43;;;3.17;;
8421;SDS011;4248;48.196;10.924;2023-04-03T02:42:12;5.87;;;3.43;;
8421;SDS011;4248;48.196;10.924;2023-04-03T02:44:38;4.30;;;3.10;;
8421;SDS011;4248;48.196;10.924;2023-04-03T02:47:04;6.67;;;3.80;;
8421;SDS011;4248;48.196;10.924;2023-04-03T02:49:30;5.13;;;3.20;;
8421;SDS011;4248;48.196;10.924;2023-04-03T02:51:55;4.30;;;2.80;;
8421;SDS011;4248;48.196;10.924;2023-04-03T02:54:21;4.60;;;2.80;;
8421;SDS011;4248;48.196;10.924;2023-04-03T02:56:48;8.27;;;3.20;;
8421;SDS011;4248;48.196;10.924;2023-04-03T02:59:14;9.13;;;3.40;;
8421;SDS011;4248;48.196;10.924;2023-04-03T03:01:40;5.57;;;2.90;;
8421;SDS011;4248;48.196;10.924;2023-04-03T03:04:05;4.80;;;2.93;;
8421;SDS011;4248;48.196;10.924;2023-04-03T03:06:31;6.13;;;3.10;;
8421;SDS011;4248;48.196;10.924;2023-04-03T03:08:57;4.00;;;3.10;;
8421;SDS011;4248;48.196;10.924;2023-04-03T03:11:22;4.03;;;2.97;;
8421;SDS011;4248;48.196;10.924;2023-04-03T03:13:48;4.17;;;2.93;;
8421;SDS011;4248;48.196;10.924;2023-04-03T03:16:14;4.30;;;2.63;;
8421;SDS011;4248;48.196;10.924;2023-04-03T03:18:40;4.80;;;2.73;;
8421;SDS011;4248;48.196;10.924;2023-04-03T03:21:05;5.17;;;2.87;;
8421;SDS011;4248;48.196;10.924;2023-04-03T03:23:31;7.87;;;4.20;;
8421;SDS011;4248;48.196;10.924;2023-04-03T03:25:58;14.50;;;4.50;;
8421;SDS011;4248;48.196;10.924;2023-04-03T03:28:26;5.90;;;3.77;;
8421;SDS011;4248;48.196;10.924;2023-04-03T03:30:52;6.50;;;3.90;;
8421;SDS011;4248;48.196;10.924;2023-04-03T03:33:18;11.63;;;6.93;;
8421;SDS011;4248;48.196;10.924;2023-04-03T03:35:44;10.07;;;5.90;;
8421;SDS011;4248;48.196;10.924;2023-04-03T03:38:10;5.93;;;3.47;;
8421;SDS011;4248;48.196;10.924;2023-04-03T03:40:36;5.57;;;3.30;;
8421;SDS011;4248;48.196;10.924;2023-04-03T03:43:02;6.13;;;3.50;;
8421;SDS011;4248;48.196;10.924;2023-04-03T03:45:28;5.78;;;3.20;;
8421;SDS011;4248;48.196;10.924;2023-04-03T03:47:54;4.70;;;3.33;;
8421;SDS011;4248;48.196;10.924;2023-04-03T03:50:20;6.53;;;3.97;;
8421;SDS011;4248;48.196;10.924;2023-04-03T03:52:45;8.00;;;5.40;;
8421;SDS011;4248;48.196;10.924;2023-04-03T03:55:11;6.20;;;4.03;;
8421;SDS011;4248;48.196;10.924;2023-04-03T03:57:37;10.40;;;5.75;;
8421;SDS011;4248;48.196;10.924;2023-04-03T04:00:03;11.67;;;6.37;;
8421;SDS011;4248;48.196;10.924;2023-04-03T04:02:29;6.85;;;4.57;;
8421;SDS011;4248;48.196;10.924;2023-04-03T04:04:55;8.80;;;4.70;;
8421;SDS011;4248;48.196;10.924;2023-04-03T04:07:21;10.57;;;3.00;;
8421;SDS011;4248;48.196;10.924;2023-04-03T04:09:47;6.10;;;3.43;;
8421;SDS011;4248;48.196;10.924;2023-04-03T04:12:13;5.40;;;3.65;;
8421;SDS011;4248;48.196;10.924;2023-04-03T04:14:39;5.10;;;3.57;;
8421;SDS011;4248;48.196;10.924;2023-04-03T04:17:05;7.17;;;4.37;;
8421;SDS011;4248;48.196;10.924;2023-04-03T04:19:30;4.67;;;3.30;;
8421;SDS011;4248;48.196;10.924;2023-04-03T04:21:56;5.03;;;3.20;;
8421;SDS011;4248;48.196;10.924;2023-04-03T04:24:22;3.70;;;2.70;;
8421;SDS011;4248;48.196;10.924;2023-04-03T04:26:47;5.40;;;3.67;;
8421;SDS011;4248;48.196;10.924;2023-04-03T04:29:13;3.90;;;2.87;;
8421;SDS011;4248;48.196;10.924;2023-04-03T04:31:39;7.77;;;3.87;;
8421;SDS011;4248;48.196;10.924;2023-04-03T04:34:05;5.10;;;2.60;;
8421;SDS011;4248;48.196;10.924;2023-04-03T04:36:30;5.20;;;3.40;;
8421;SDS011;4248;48.196;10.924;2023-04-03T04:38:56;6.77;;;3.47;;
8421;SDS011;4248;48.196;10.924;2023-04-03T04:41:23;5.20;;;3.47;;
8421;SDS011;4248;48.196;10.924;2023-04-03T04:43:49;4.67;;;3.20;;
8421;SDS011;4248;48.196;10.924;2023-04-03T04:46:15;9.43;;;3.53;;
8421;SDS011;4248;48.196;10.924;2023-04-03T04:48:41;8.97;;;3.63;;
8421;SDS011;4248;48.196;10.924;2023-04-03T04:51:07;5.40;;;3.77;;
8421;SDS011;4248;48.196;10.924;2023-04-03T04:53:32;4.70;;;3.70;;
8421;SDS011;4248;48.196;10.924;2023-04-03T04:55:58;7.50;;;3.10;;
8421;SDS011;4248;48.196;10.924;2023-04-03T04:58:24;5.53;;;3.40;;
8421;SDS011;4248;48.196;10.924;2023-04-03T05:00:50;6.57;;;3.08;;
8421;SDS011;4248;48.196;10.924;2023-04-03T05:03:23;6.25;;;3.90;;
8421;SDS011;4248;48.196;10.924;2023-04-03T05:05:49;6.43;;;3.97;;
8421;SDS011;4248;48.196;10.924;2023-04-03T05:08:14;6.87;;;3.83;;
8421;SDS011;4248;48.196;10.924;2023-04-03T05:10:40;4.70;;;3.23;;
8421;SDS011;4248;48.196;10.924;2023-04-03T05:13:07;6.32;;;3.22;;
8421;SDS011;4248;48.196;10.924;2023-04-03T05:15:32;4.60;;;3.50;;
8421;SDS011;4248;48.196;10.924;2023-04-03T05:17:58;4.93;;;3.10;;
8421;SDS011;4248;48.196;10.924;2023-04-03T05:20:23;6.37;;;3.50;;
8421;SDS011;4248;48.196;10.924;2023-04-03T05:22:50;4.30;;;3.25;;
8421;SDS011;4248;48.196;10.924;2023-04-03T05:25:15;4.80;;;2.90;;
8421;SDS011;4248;48.196;10.924;2023-04-03T05:27:41;9.83;;;3.73;;
8421;SDS011;4248;48.196;10.924;2023-04-03T05:30:07;7.93;;;4.53;;
8421;SDS011;4248;48.196;10.924;2023-04-03T05:32:33;9.30;;;3.70;;
8421;SDS011;4248;48.196;10.924;2023-04-03T05:34:59;7.23;;;3.73;;
8421;SDS011;4248;48.196;10.924;2023-04-03T05:37:24;5.10;;;3.57;;
8421;SDS011;4248;48.196;10.924;2023-04-03T05:39:50;5.37;;;3.63;;
8421;SDS011;4248;48.196;10.924;2023-04-03T05:42:16;6.70;;;3.90;;
8421;SDS011;4248;48.196;10.924;2023-04-03T05:44:41;4.60;;;3.27;;
8421;SDS011;4248;48.196;10.924;2023-04-03T05:47:07;7.43;;;3.57;;
8421;SDS011;4248;48.196;10.924;2023-04-03T05:49:33;5.13;;;3.40;;
8421;SDS011;4248;48.196;10.924;2023-04-03T05:51:59;8.30;;;3.72;;
8421;SDS011;4248;48.196;10.924;2023-04-03T05:54:27;4.88;;;3.38;;
8421;SDS011;4248;48.196;10.924;2023-04-03T05:56:54;5.90;;;3.70;;
8421;SDS011;4248;48.196;10.924;2023-04-03T05:59:20;10.73;;;3.60;;
8421;SDS011;4248;48.196;10.924;2023-04-03T06:01:46;4.73;;;3.43;;
8421;SDS011;4248;48.196;10.924;2023-04-03T06:04:13;7.25;;;3.38;;
8421;SDS011;4248;48.196;10.924;2023-04-03T06:06:54;7.30;;;3.50;;
8421;SDS011;4248;48.196;10.924;2023-04-03T06:09:24;8.40;;;3.80;;
8421;SDS011;4248;48.196;10.924;2023-04-03T06:11:51;5.47;;;3.45;;
8421;SDS011;4248;48.196;10.924;2023-04-03T06:14:17;7.80;;;3.88;;
8421;SDS011;4248;48.196;10.924;2023-04-03T06:16:43;6.40;;;3.87;;
8421;SDS011;4248;48.196;10.924;2023-04-03T06:19:10;6.20;;;3.70;;
8421;SDS011;4248;48.196;10.924;2023-04-03T06:21:36;7.53;;;4.18;;
8421;SDS011;4248;48.196;10.924;2023-04-03T06:24:03;8.30;;;3.40;;
8421;SDS011;4248;48.196;10.924;2023-04-03T06:26:29;6.67;;;4.33;;
8421;SDS011;4248;48.196;10.924;2023-04-03T06:28:55;7.37;;;3.50;;
8421;SDS011;4248;48.196;10.924;2023-04-03T06:31:21;6.10;;;4.27;;
8421;SDS011;4248;48.196;10.924;2023-04-03T06:33:47;6.13;;;3.47;;
8421;SDS011;4248;48.196;10.924;2023-04-03T06:36:12;4.90;;;3.07;;
8421;SDS011;4248;48.196;10.924;2023-04-03T06:38:38;5.60;;;4.13;;
8421;SDS011;4248;48.196;10.924;2023-04-03T06:41:04;7.77;;;3.70;;
8421;SDS011;4248;48.196;10.924;2023-04-03T06:43:30;5.50;;;3.47;;
8421;SDS011;4248;48.196;10.924;2023-04-03T06:45:58;7.00;;;4.17;;
8421;SDS011;4248;48.196;10.924;2023-04-03T06:48:24;6.80;;;3.90;;
8421;SDS011;4248;48.196;10.924;2023-04-03T06:50:49;4.43;;;3.30;;
8421;SDS011;4248;48.196;10.924;2023-04-03T06:53:15;4.50;;;3.47;;
8421;SDS011;4248;48.196;10.924;2023-04-03T06:55:41;5.37;;;3.90;;
8421;SDS011;4248;48.196;10.924;2023-04-03T06:58:06;7.27;;;3.10;;
8421;SDS011;4248;48.196;10.924;2023-04-03T07:00:32;6.13;;;3.90;;
8421;SDS011;4248;48.196;10.924;2023-04-03T07:02:58;9.97;;;3.30;;
8421;SDS011;4248;48.196;10.924;2023-04-03T07:05:24;6.33;;;4.00;;
8421;SDS011;4248;48.196;10.924;2023-04-03T07:07:51;6.50;;;3.70;;
8421;SDS011;4248;48.196;10.924;2023-04-03T07:10:16;7.00;;;4.00;;
8421;SDS011;4248;48.196;10.924;2023-04-03T07:12:43;5.80;;;3.80;;
8421;SDS011;4248;48.196;10.924;2023-04-03T07:15:08;6.90;;;3.73;;
8421;SDS011;4248;48.196;10.924;2023-04-03T07:17:34;5.47;;;3.60;;
8421;SDS011;4248;48.196;10.924;2023-04-03T07:20:01;7.50;;;3.70;;
8421;SDS011;4248;48.196;10.924;2023-04-03T07:22:27;6.00;;;4.10;;
8421;SDS011;4248;48.196;10.924;2023-04-03T07:24:53;6.77;;;4.00;;
8421;SDS011;4248;48.196;10.924;2023-04-03T07:27:18;5.97;;;3.10;;
8421;SDS011;4248;48.196;10.924;2023-04-03T07:29:44;5.60;;;3.90;;
8421;SDS011;4248;48.196;10.924;2023-04-03T07:32:10;4.83;;;2.77;;
8421;SDS011;4248;48.196;10.924;2023-04-03T07:34:36;4.77;;;3.50;;
8421;SDS011;4248;48.196;10.924;2023-04-03T07:37:02;4.33;;;3.10;;
8421;SDS011;4248;48.196;10.924;2023-04-03T07:39:28;6.80;;;3.93;;
8421;SDS011;4248;48.196;10.924;2023-04-03T07:41:54;13.30;;;4.10;;
8421;SDS011;4248;48.196;10.924;2023-04-03T07:44:22;7.47;;;4.53;;
8421;SDS011;4248;48.196;10.924;2023-04-03T07:46:48;6.70;;;3.73;;
8421;SDS011;4248;48.196;10.924;2023-04-03T07:49:15;8.63;;;4.23;;
8421;SDS011;4248;48.196;10.924;2023-04-03T07:51:43;7.87;;;3.50;;
8421;SDS011;4248;48.196;10.924;2023-04-03T07:54:09;5.30;;;3.20;;
8421;SDS011;4248;48.196;10.924;2023-04-03T07:56:34;6.80;;;4.40;;
8421;SDS011;4248;48.196;10.924;2023-04-03T07:59:00;5.97;;;3.67;;
8421;SDS011;4248;48.196;10.924;2023-04-03T08:01:26;6.50;;;3.70;;
8421;SDS011;4248;48.196;10.924;2023-04-03T08:03:51;7.47;;;3.80;;
8421;SDS011;4248;48.196;10.924;2023-04-03T08:06:17;7.00;;;3.20;;
8421;SDS011;4248;48.196;10.924;2023-04-03T08:08:43;6.20;;;3.80;;
8421;SDS011;4248;48.196;10.924;2023-04-03T08:11:09;8.30;;;3.23;;
8421;SDS011;4248;48.196;10.924;2023-04-03T08:13:35;5.03;;;3.30;;
8421;SDS011;4248;48.196;10.924;2023-04-03T08:16:08;5.23;;;3.73;;
8421;SDS011;4248;48.196;10.924;2023-04-03T08:18:35;4.30;;;3.30;;
8421;SDS011;4248;48.196;10.924;2023-04-03T08:21:00;4.57;;;3.40;;
8421;SDS011;4248;48.196;10.924;2023-04-03T08:23:30;7.37;;;3.30;;
8421;SDS011;4248;48.196;10.924;2023-04-03T08:25:55;8.03;;;3.97;;
8421;SDS011;4248;48.196;10.924;2023-04-03T08:28:21;6.00;;;3.70;;
8421;SDS011;4248;48.196;10.924;2023-04-03T08:30:47;5.43;;;3.40;;
8421;SDS011;4248;48.196;10.924;2023-04-03T08:33:12;5.30;;;3.60;;
8421;SDS011;4248;48.196;10.924;2023-04-03T08:35:38;6.50;;;3.40;;
8421;SDS011;4248;48.196;10.924;2023-04-03T08:38:05;6.43;;;3.43;;
8421;SDS011;4248;48.196;10.924;2023-04-03T08:40:31;5.30;;;2.90;;
8421;SDS011;4248;48.196;10.924;2023-04-03T08:43:01;5.50;;;3.60;;
8421;SDS011;4248;48.196;10.924;2023-04-03T08:46:02;5.30;;;3.33;;
8421;SDS011;4248;48.196;10.924;2023-04-03T08:48:32;4.23;;;2.90;;
8421;SDS011;4248;48.196;10.924;2023-04-03T08:51:00;6.20;;;3.40;;
8421;SDS011;4248;48.196;10.924;2023-04-03T08:53:36;7.53;;;3.20;;
8421;SDS011;4248;48.196;10.924;2023-04-03T08:56:08;6.30;;;3.37;;
8421;SDS011;4248;48.196;10.924;2023-04-03T08:58:43;5.00;;;3.60;;
8421;SDS011;4248;48.196;10.924;2023-04-03T09:01:21;5.10;;;2.90;;
8421;SDS011;4248;48.196;10.924;2023-04-03T09:03:54;5.80;;;3.60;;
8421;SDS011;4248;48.196;10.924;2023-04-03T09:14:26;6.93;;;3.00;;
8421;SDS011;4248;48.196;10.924;2023-04-03T09:17:14;7.00;;;3.20;;
8421;SDS011;4248;48.196;10.924;2023-04-03T09:22:26;4.60;;;3.10;;
8421;SDS011;4248;48.196;10.924;2023-04-03T09:25:02;3.60;;;2.70;;
8421;SDS011;4248;48.196;10.924;2023-04-03T09:27:41;5.10;;;3.10;;
8421;SDS011;4248;48.196;10.924;2023-04-03T09:30:11;7.43;;;3.13;;
8421;SDS011;4248;48.196;10.924;2023-04-03T09:32:43;4.73;;;3.13;;
8421;SDS011;4248;48.196;10.924;2023-04-03T09:35:30;4.90;;;3.27;;
8421;SDS011;4248;48.196;10.924;2023-04-03T09:40:40;5.13;;;3.10;;
8421;SDS011;4248;48.196;10.924;2023-04-03T09:45:42;4.20;;;2.50;;
8421;SDS011;4248;48.196;10.924;2023-04-03T09:50:40;9.57;;;3.10;;
8421;SDS011;4248;48.196;10.924;2023-04-03T09:53:38;9.30;;;2.10;;
8421;SDS011;4248;48.196;10.924;2023-04-03T09:59:06;5.53;;;3.03;;
8421;SDS011;4248;48.196;10.924;2023-04-03T10:01:41;6.83;;;2.80;;
8421;SDS011;4248;48.196;10.924;2023-04-03T10:04:16;4.83;;;3.07;;
8421;SDS011;4248;48.196;10.924;2023-04-03T10:06:46;7.20;;;3.17;;
8421;SDS011;4248;48.196;10.924;2023-04-03T10:09:21;5.10;;;2.97;;
8421;SDS011;4248;48.196;10.924;2023-04-03T10:12:08;8.87;;;2.70;;
8421;SDS011;4248;48.196;10.924;2023-04-03T10:14:38;5.03;;;3.17;;
8421;SDS011;4248;48.196;10.924;2023-04-03T10:28:56;6.10;;;2.90;;
8421;SDS011;4248;48.196;10.924;2023-04-03T10:34:47;5.07;;;2.80;;
8421;SDS011;4248;48.196;10.924;2023-04-03T10:37:24;5.60;;;2.93;;
8421;SDS011;4248;48.196;10.924;2023-04-03T10:43:25;6.27;;;2.83;;
8421;SDS011;4248;48.196;10.924;2023-04-03T10:46:17;5.27;;;2.73;;
8421;SDS011;4248;48.196;10.924;2023-04-03T10:51:58;4.77;;;2.40;;
8421;SDS011;4248;48.196;10.924;2023-04-03T10:54:46;3.40;;;2.60;;
8421;SDS011;4248;48.196;10.924;2023-04-03T10:57:38;4.53;;;2.53;;
8421;SDS011;4248;48.196;10.924;2023-04-03T11:00:22;4.87;;;2.93;;
8421;SDS011;4248;48.196;10.924;2023-04-03T11:03:45;5.33;;;2.57;;
8421;SDS011;4248;48.196;10.924;2023-04-03T11:06:04;4.50;;;2.67;;
8421;SDS011;4248;48.196;10.924;2023-04-03T11:11:11;4.70;;;2.73;;
8421;SDS011;4248;48.196;10.924;2023-04-03T11:13:43;5.27;;;3.17;;
8421;SDS011;4248;48.196;10.924;2023-04-03T11:16:28;5.53;;;3.60;;
8421;SDS011;4248;48.196;10.924;2023-04-03T11:22:14;6.23;;;3.13;;
8421;SDS011;4248;48.196;10.924;2023-04-03T11:24:52;5.70;;;3.27;;
8421;SDS011;4248;48.196;10.924;2023-04-03T11:27:43;5.93;;;2.80;;
8421;SDS011;4248;48.196;10.924;2023-04-03T11:33:00;7.60;;;3.63;;
8421;SDS011;4248;48.196;10.924;2023-04-03T11:35:28;8.33;;;3.00;;
8421;SDS011;4248;48.196;10.924;2023-04-03T11:37:55;3.93;;;2.63;;
8421;SDS011;4248;48.196;10.924;2023-04-03T11:40:24;5.50;;;3.30;;
8421;SDS011;4248;48.196;10.924;2023-04-03T12:08:24;10.70;;;5.30;;
8421;SDS011;4248;48.196;10.924;2023-04-03T12:13:39;5.60;;;3.67;;
8421;SDS011;4248;48.196;10.924;2023-04-03T12:19:03;5.30;;;3.20;;
8421;SDS011;4248;48.196;10.924;2023-04-03T12:27:16;7.03;;;4.40;;
8421;SDS011;4248;48.196;10.924;2023-04-03T12:29:23;6.47;;;3.93;;
8421;SDS011;4248;48.196;10.924;2023-04-03T12:46:37;7.50;;;3.27;;
8421;SDS011;4248;48.196;10.924;2023-04-03T12:49:31;4.37;;;2.70;;
8421;SDS011;4248;48.196;10.924;2023-04-03T12:55:19;7.63;;;3.53;;
8421;SDS011;4248;48.196;10.924;2023-04-03T12:57:46;4.13;;;2.43;;
8421;SDS011;4248;48.196;10.924;2023-04-03T13:00:18;9.93;;;3.10;;
8421;SDS011;4248;48.196;10.924;2023-04-03T13:02:46;4.90;;;2.40;;
8421;SDS011;4248;48.196;10.924;2023-04-03T13:05:17;7.73;;;2.47;;
8421;SDS011;4248;48.196;10.924;2023-04-03T13:07:44;5.27;;;2.40;;
8421;SDS011;4248;48.196;10.924;2023-04-03T13:10:16;7.47;;;2.83;;
8421;SDS011;4248;48.196;10.924;2023-04-03T13:17:44;5.20;;;2.67;;
8421;SDS011;4248;48.196;10.924;2023-04-03T13:20:21;4.53;;;2.90;;
8421;SDS011;4248;48.196;10.924;2023-04-03T13:23:02;5.43;;;2.93;;
8421;SDS011;4248;48.196;10.924;2023-04-03T13:25:34;3.10;;;2.23;;
8421;SDS011;4248;48.196;10.924;2023-04-03T13:28:04;5.40;;;2.23;;
8421;SDS011;4248;48.196;10.924;2023-04-03T13:30:32;3.77;;;1.70;;
8421;SDS011;4248;48.196;10.924;2023-04-03T13:33:02;5.30;;;2.40;;
8421;SDS011;4248;48.196;10.924;2023-04-03T13:35:35;7.93;;;2.47;;
8421;SDS011;4248;48.196;10.924;2023-04-03T13:38:25;4.77;;;2.60;;
8421;SDS011;4248;48.196;10.924;2023-04-03T13:40:51;5.50;;;2.33;;
8421;SDS011;4248;48.196;10.924;2023-04-03T13:43:30;4.70;;;2.87;;
8421;SDS011;4248;48.196;10.924;2023-04-03T13:48:42;3.77;;;2.40;;
8421;SDS011;4248;48.196;10.924;2023-04-03T13:56:33;7.00;;;2.90;;
8421;SDS011;4248;48.196;10.924;2023-04-03T14:01:43;3.90;;;2.20;;
8421;SDS011;4248;48.196;10.924;2023-04-03T14:04:18;6.60;;;2.83;;
8421;SDS011;4248;48.196;10.924;2023-04-03T14:06:49;2.77;;;1.93;;
8421;SDS011;4248;48.196;10.924;2023-04-03T14:09:15;9.73;;;3.20;;
8421;SDS011;4248;48.196;10.924;2023-04-03T14:11:43;10.40;;;2.47;;
8421;SDS011;4248;48.196;10.924;2023-04-03T14:14:18;4.93;;;1.90;;
8421;SDS011;4248;48.196;10.924;2023-04-03T14:16:52;4.37;;;2.17;;
8421;SDS011;4248;48.196;10.924;2023-04-03T14:19:25;4.57;;;2.50;;
8421;SDS011;4248;48.196;10.924;2023-04-03T14:21:53;5.57;;;2.30;;
8421;SDS011;4248;48.196;10.924;2023-04-03T14:24:21;4.17;;;2.37;;
8421;SDS011;4248;48.196;10.924;2023-04-03T14:26:48;9.20;;;2.10;;
8421;SDS011;4248;48.196;10.924;2023-04-03T14:29:15;4.00;;;1.90;;
8421;SDS011;4248;48.196;10.924;2023-04-03T14:31:41;4.63;;;2.07;;
8421;SDS011;4248;48.196;10.924;2023-04-03T14:34:09;4.23;;;1.97;;
8421;SDS011;4248;48.196;10.924;2023-04-03T14:36:36;4.10;;;1.80;;
8421;SDS011;4248;48.196;10.924;2023-04-03T14:39:03;4.00;;;1.80;;
8421;SDS011;4248;48.196;10.924;2023-04-03T14:41:31;6.83;;;2.03;;
8421;SDS011;4248;48.196;10.924;2023-04-03T14:43:57;5.27;;;1.97;;
8421;SDS011;4248;48.196;10.924;2023-04-03T14:46:27;6.07;;;2.10;;
8421;SDS011;4248;48.196;10.924;2023-04-03T14:48:59;5.40;;;1.87;;
8421;SDS011;4248;48.196;10.924;2023-04-03T14:51:25;3.73;;;1.77;;
8421;SDS011;4248;48.196;10.924;2023-04-03T14:53:51;6.10;;;1.73;;
8421;SDS011;4248;48.196;10.924;2023-04-03T14:56:21;5.03;;;1.87;;
8421;SDS011;4248;48.196;10.924;2023-04-03T14:58:51;5.10;;;1.93;;
8421;SDS011;4248;48.196;10.924;2023-04-03T15:01:20;3.30;;;1.73;;
8421;SDS011;4248;48.196;10.924;2023-04-03T15:03:46;4.60;;;1.67;;
8421;SDS011;4248;48.196;10.924;2023-04-03T15:06:12;4.30;;;1.90;;
8421;SDS011;4248;48.196;10.924;2023-04-03T15:08:39;5.17;;;2.20;;
8421;SDS011;4248;48.196;10.924;2023-04-03T15:11:06;3.03;;;1.93;;
8421;SDS011;4248;48.196;10.924;2023-04-03T15:13:33;5.00;;;2.13;;
8421;SDS011;4248;48.196;10.924;2023-04-03T15:15:59;6.93;;;1.73;;
8421;SDS011;4248;48.196;10.924;2023-04-03T15:18:25;13.30;;;6.10;;
8421;SDS011;4248;48.196;10.924;2023-04-03T15:20:53;58.17;;;23.37;;
8421;SDS011;4248;48.196;10.924;2023-04-03T15:23:20;25.23;;;8.90;;
8421;SDS011;4248;48.196;10.924;2023-04-03T15:25:50;8.90;;;4.23;;
8421;SDS011;4248;48.196;10.924;2023-04-03T15:28:27;5.63;;;2.80;;
8421;SDS011;4248;48.196;10.924;2023-04-03T15:31:01;3.77;;;1.50;;
8421;SDS011;4248;48.196;10.924;2023-04-03T15:33:27;3.40;;;1.70;;
8421;SDS011;4248;48.196;10.924;2023-04-03T15:35:53;4.23;;;1.50;;
8421;SDS011;4248;48.196;10.924;2023-04-03T15:38:18;5.00;;;1.43;;
8421;SDS011;4248;48.196;10.924;2023-04-03T15:40:44;4.67;;;1.80;;
8421;SDS011;4248;48.196;10.924;2023-04-03T15:43:11;3.17;;;1.40;;
8421;SDS011;4248;48.196;10.924;2023-04-03T15:45:38;2.23;;;1.30;;
8421;SDS011;4248;48.196;10.924;2023-04-03T15:48:04;5.30;;;1.50;;
8421;SDS011;4248;48.196;10.924;2023-04-03T15:50:31;4.03;;;1.87;;
8421;SDS011;4248;48.196;10.924;2023-04-03T15:52:58;6.10;;;1.57;;
8421;SDS011;4248;48.196;10.924;2023-04-03T15:55:25;2.67;;;1.60;;
8421;SDS011;4248;48.196;10.924;2023-04-03T15:57:52;6.80;;;2.07;;
8421;SDS011;4248;48.196;10.924;2023-04-03T16:00:18;4.13;;;1.60;;
8421;SDS011;4248;48.196;10.924;2023-04-03T16:02:45;3.63;;;1.57;;
8421;SDS011;4248;48.196;10.924;2023-04-03T16:05:11;3.00;;;1.50;;
8421;SDS011;4248;48.196;10.924;2023-04-03T16:07:38;6.57;;;1.80;;
8421;SDS011;4248;48.196;10.924;2023-04-03T16:10:05;9.80;;;3.47;;
8421;SDS011;4248;48.196;10.924;2023-04-03T16:12:32;5.50;;;2.40;;
8421;SDS011;4248;48.196;10.924;2023-04-03T16:14:58;4.30;;;2.13;;
8421;SDS011;4248;48.196;10.924;2023-04-03T16:17:24;2.60;;;1.80;;
8421;SDS011;4248;48.196;10.924;2023-04-03T16:19:51;4.10;;;1.90;;
8421;SDS011;4248;48.196;10.924;2023-04-03T16:22:17;5.47;;;2.60;;
8421;SDS011;4248;48.196;10.924;2023-04-03T16:24:43;2.87;;;1.60;;
8421;SDS011;4248;48.196;10.924;2023-04-03T16:27:09;3.37;;;1.33;;
8421;SDS011;4248;48.196;10.924;2023-04-03T16:29:35;4.93;;;1.80;;
8421;SDS011;4248;48.196;10.924;2023-04-03T16:32:01;4.50;;;2.00;;
8421;SDS011;4248;48.196;10.924;2023-04-03T16:34:27;5.93;;;1.40;;
8421;SDS011;4248;48.196;10.924;2023-04-03T16:36:55;4.23;;;1.40;;
8421;SDS011;4248;48.196;10.924;2023-04-03T16:39:20;4.83;;;1.80;;
8421;SDS011;4248;48.196;10.924;2023-04-03T16:41:46;3.53;;;1.57;;
8421;SDS011;4248;48.196;10.924;2023-04-03T16:44:12;6.63;;;1.43;;
8421;SDS011;4248;48.196;10.924;2023-04-03T16:46:38;6.90;;;2.07;;
8421;SDS011;4248;48.196;10.924;2023-04-03T16:49:04;4.00;;;1.97;;
8421;SDS011;4248;48.196;10.924;2023-04-03T16:51:30;3.47;;;1.77;;
8421;SDS011;4248;48.196;10.924;2023-04-03T16:53:56;2.90;;;1.33;;
8421;SDS011;4248;48.196;10.924;2023-04-03T16:56:22;4.60;;;1.70;;
8421;SDS011;4248;48.196;10.924;2023-04-03T16:58:48;1.90;;;1.20;;
8421;SDS011;4248;48.196;10.924;2023-04-03T17:01:15;6.63;;;1.60;;
8421;SDS011;4248;48.196;10.924;2023-04-03T17:03:42;2.87;;;1.60;;
8421;SDS011;4248;48.196;10.924;2023-04-03T17:06:09;5.83;;;1.53;;
8421;SDS011;4248;48.196;10.924;2023-04-03T17:08:41;3.87;;;1.70;;
8421;SDS011;4248;48.196;10.924;2023-04-03T17:11:08;3.60;;;1.87;;
8421;SDS011;4248;48.196;10.924;2023-04-03T17:13:34;4.30;;;1.63;;
8421;SDS011;4248;48.196;10.924;2023-04-03T17:16:00;9.23;;;1.80;;
8421;SDS011;4248;48.196;10.924;2023-04-03T17:18:29;5.23;;;1.40;;